Kleinfeltersville, PA

4:41 AM EDT on October 17, 2019 (GMT -0400)
WB3IGR | | Change Station
Active Advisory: Wind Advisory

Elev 545 ft 40.34 °N, 76.20 °W | Updated 15 seconds ago

Overcast
Overcast
49.08 °F
Feels Like 46 °F
N
6.3
Wind Variable Wind from WNW
Gusts 11.0 mph

Today
High -- | Low -- °F
--% Chance of Precip.
Yesterday
High -- | Low -- °F
Precip. -- in
Pressure 29.45 in
Visibility 10.0 miles
Clouds Mostly Cloudy 4700 ft
Overcast 6000 ft
Windchill 46 °F
Dew Point 40 °F
Humidity 71%
Rainfall 0.00 in
Snow Depth Not available.
7:17 AM 6:22 PM
Waning Gibbous, 89% visible
METAR KLNS 170753Z AUTO 29016G25KT 10SM BKN047 OVC060 12/04 A2945 RMK AO2 SLP971 T01170039
Pressure 29.45 in
Visibility 10.0 miles
Clouds Mostly Cloudy 4700 ft
Overcast 6000 ft
Windchill 46 °F
Dew Point 40 °F
Humidity 71%
Rainfall 0.00 in
Snow Depth Not available.
7:17 AM 6:22 PM
Waning Gibbous, 89% visible
METAR KLNS 170753Z AUTO 29016G25KT 10SM BKN047 OVC060 12/04 A2945 RMK AO2 SLP971 T01170039

Get Your Daily Forecast Email!

Thanks for signing up!

Be on the lookout for a verification email in your inbox.

You'll start receiving severe weather alerts in your inbox..

×

10-Day Weather Forecast

Almanac

Astronomy

Oct. 17, 2019 Rise Set
Actual Time
Civil Twilight
Nautical Twilight
Astronomical Twilight
Moon
Length of Visible Light
Length of Day
Tomorrow will be .
, % of the Moon is Illuminated

Today's Extremes

State Highs State Lows

Community

WunderPhotos

Category 6

Welcome to Category 6. This is the collective home for Weather Underground's featured writeups by Dr. Jeff Masters (right), Bob Henson (left), Chris Burt, and other regular contributors.

Nearby

Air Quality

  Air Quality AQ Index Pollutant
Not available.

Snow Depth

Station Depth Elevation

Earthquake Activity

City Distance Mag. Time & Date
Minimum magnitude displayed is 2.5.

Coastal Water Temperatures

Place Temperature

Stations

Nearby Weather Stations

Station Location Temp. Windchill Dew Point Humidity Wind Precip. Elev Updated Type
                   

Watches & Warnings

Wind Advisory
Issued: 3:26 AM EDT Oct. 17, 2019 – National Weather Service

... Wind Advisory in effect from 8 am this morning to 8 PM EDT
this evening...

* what... west winds 15 to 25 mph with gusts between 45 and 50 mph
expected.

* Where... portions of south-central Pennsylvania.

* When... from 8 am to 8 PM EDT Thursday.

* Impacts... gusty winds could blow around unsecured objects. Tree
limbs could be blown down and a few power outages may result.

Precautionary/preparedness actions...

Use extra caution when driving, especially if operating a high
profile vehicle. Secure outdoor objects.

For high wind safety information, visit weather.Gov/wind.

The latest forecast information can be found on the
NWS State College facebook Page and twitter @nwsstatecollege,
or on the web at weather.Gov/ctp.